createdAt,value
2022-10-07T00:00:42.777Z,1023.62
2022-10-07T00:01:42.881Z,1023.65
2022-10-07T00:02:42.850Z,1023.64
2022-10-07T00:03:42.770Z,1023.62
2022-10-07T00:04:42.765Z,1023.62
2022-10-07T00:05:42.756Z,1023.59
2022-10-07T00:06:42.756Z,1023.59
2022-10-07T00:07:43.070Z,1023.61
2022-10-07T00:08:42.746Z,1023.63
2022-10-07T00:09:42.748Z,1023.61
2022-10-07T00:10:42.741Z,1023.61
2022-10-07T00:11:42.733Z,1023.59
2022-10-07T00:12:42.729Z,1023.61
2022-10-07T00:13:42.724Z,1023.60
2022-10-07T00:14:42.722Z,1023.55
2022-10-07T00:15:42.723Z,1023.56
2022-10-07T00:16:42.796Z,1023.53
2022-10-07T00:17:43.060Z,1023.53
2022-10-07T00:18:42.721Z,1023.52
2022-10-07T00:19:42.708Z,1023.55
2022-10-07T00:20:42.700Z,1023.48
2022-10-07T00:21:42.698Z,1023.48
2022-10-07T00:22:42.695Z,1023.49
2022-10-07T00:23:42.687Z,1023.46
2022-10-07T00:24:42.684Z,1023.47
2022-10-07T00:25:42.686Z,1023.44
2022-10-07T00:26:42.676Z,1023.49
2022-10-07T00:27:42.966Z,1023.46
2022-10-07T00:28:42.813Z,1023.48
2022-10-07T00:29:42.671Z,1023.46
2022-10-07T00:30:42.718Z,1023.42
2022-10-07T00:31:42.658Z,1023.45
2022-10-07T00:32:42.658Z,1023.44
2022-10-07T00:33:42.696Z,1023.46
2022-10-07T00:34:42.854Z,1023.41
2022-10-07T00:35:42.647Z,1023.44
2022-10-07T00:36:42.639Z,1023.41
2022-10-07T00:37:43.074Z,1023.40
2022-10-07T00:38:42.630Z,1023.40
2022-10-07T00:39:42.629Z,1023.36
2022-10-07T00:40:42.624Z,1023.37
2022-10-07T00:41:42.622Z,1023.35
2022-10-07T00:42:42.611Z,1023.33
2022-10-07T00:43:42.612Z,1023.31
2022-10-07T00:44:42.608Z,1023.32
2022-10-07T00:45:42.665Z,1023.32
2022-10-07T00:46:42.600Z,1023.31
2022-10-07T00:47:42.924Z,1023.27
2022-10-07T00:48:42.590Z,1023.31
2022-10-07T00:49:42.586Z,1023.29
2022-10-07T00:50:42.600Z,1023.27
2022-10-07T00:51:42.579Z,1023.29
2022-10-07T00:52:42.574Z,1023.25
2022-10-07T00:53:42.572Z,1023.23
2022-10-07T00:54:42.568Z,1023.20
2022-10-07T00:55:42.563Z,1023.19
2022-10-07T00:56:42.559Z,1023.22
2022-10-07T00:57:42.795Z,1023.20
2022-10-07T00:58:42.553Z,1023.19
2022-10-07T00:59:42.549Z,1023.19
2022-10-07T01:00:42.544Z,1023.16
2022-10-07T01:01:42.583Z,1023.19
2022-10-07T01:02:42.656Z,1023.11
2022-10-07T01:03:42.534Z,1023.17
2022-10-07T01:04:42.540Z,1023.12
2022-10-07T01:05:42.528Z,1023.11
2022-10-07T01:06:42.539Z,1023.13
2022-10-07T01:07:42.839Z,1023.10
2022-10-07T01:08:42.513Z,1023.09
2022-10-07T01:09:42.512Z,1023.06
2022-10-07T01:10:42.503Z,1023.05
2022-10-07T01:11:42.502Z,1023.06
2022-10-07T01:12:42.496Z,1023.05
2022-10-07T01:13:42.496Z,1023.02
2022-10-07T01:14:42.495Z,1023.01
2022-10-07T01:15:42.489Z,1022.95
2022-10-07T01:16:42.579Z,1022.96
2022-10-07T01:17:42.744Z,1023.00
2022-10-07T01:18:42.475Z,1022.98
2022-10-07T01:19:42.471Z,1022.98
2022-10-07T01:20:42.470Z,1022.98
2022-10-07T01:21:42.464Z,1022.98
2022-10-07T01:22:42.478Z,1022.97
2022-10-07T01:23:42.458Z,1022.94
2022-10-07T01:24:42.453Z,1022.92
2022-10-07T01:25:42.449Z,1022.89
2022-10-07T01:26:42.445Z,1022.93
2022-10-07T01:27:42.795Z,1022.90
2022-10-07T01:28:42.490Z,1022.92
2022-10-07T01:29:42.432Z,1022.86
2022-10-07T01:30:42.543Z,1022.87
2022-10-07T01:31:42.424Z,1022.86
2022-10-07T01:32:42.422Z,1022.85
2022-10-07T01:33:42.416Z,1022.79
2022-10-07T01:34:42.413Z,1022.79
2022-10-07T01:35:42.416Z,1022.80
2022-10-07T01:36:42.406Z,1022.77
2022-10-07T01:37:42.691Z,1022.79
2022-10-07T01:38:42.422Z,1022.77
2022-10-07T01:39:42.393Z,1022.75
2022-10-07T01:40:42.388Z,1022.73
2022-10-07T01:41:42.385Z,1022.72
2022-10-07T01:42:42.379Z,1022.72
2022-10-07T01:43:42.376Z,1022.71
2022-10-07T01:44:42.389Z,1022.68
2022-10-07T01:45:42.373Z,1022.71
2022-10-07T01:46:42.371Z,1022.66
2022-10-07T01:47:42.678Z,1022.65
2022-10-07T01:48:42.358Z,1022.67
2022-10-07T01:49:42.351Z,1022.66
2022-10-07T01:50:42.348Z,1022.65
2022-10-07T01:51:42.344Z,1022.62
2022-10-07T01:52:42.345Z,1022.61
2022-10-07T01:53:42.344Z,1022.60
2022-10-07T01:54:42.356Z,1022.58
2022-10-07T01:55:42.328Z,1022.59
2022-10-07T01:56:42.328Z,1022.54
2022-10-07T01:57:42.727Z,1022.53
2022-10-07T01:58:42.320Z,1022.54
2022-10-07T01:59:42.313Z,1022.47
2022-10-07T02:00:42.315Z,1022.49
2022-10-07T02:01:42.419Z,1022.49
2022-10-07T02:02:42.302Z,1022.45
2022-10-07T02:03:42.390Z,1022.42
2022-10-07T02:04:42.293Z,1022.43
2022-10-07T02:05:42.290Z,1022.36
2022-10-07T02:06:42.286Z,1022.39
2022-10-07T02:07:42.628Z,1022.35
2022-10-07T02:08:42.276Z,1022.34
2022-10-07T02:09:42.272Z,1022.33
2022-10-07T02:10:42.290Z,1022.31
2022-10-07T02:11:42.266Z,1022.30
2022-10-07T02:12:42.260Z,1022.27
2022-10-07T02:13:42.255Z,1022.27
2022-10-07T02:14:42.259Z,1022.26
2022-10-07T02:15:42.283Z,1022.28
2022-10-07T02:16:42.244Z,1022.29
2022-10-07T02:17:42.607Z,1022.24
2022-10-07T02:18:42.234Z,1022.25
2022-10-07T02:19:42.232Z,1022.27
2022-10-07T02:20:42.228Z,1022.24
2022-10-07T02:21:42.223Z,1022.23
2022-10-07T02:22:42.223Z,1022.25
2022-10-07T02:23:42.214Z,1022.25
2022-10-07T02:24:42.213Z,1022.23
2022-10-07T02:25:42.207Z,1022.25
2022-10-07T02:26:42.222Z,1022.19
2022-10-07T02:27:42.632Z,1022.20
2022-10-07T02:28:42.339Z,1022.18
2022-10-07T02:29:42.192Z,1022.17
2022-10-07T02:30:42.237Z,1022.17
2022-10-07T02:31:42.182Z,1022.15
2022-10-07T02:32:42.186Z,1022.14
2022-10-07T02:33:42.180Z,1022.14
2022-10-07T02:34:42.172Z,1022.12
2022-10-07T02:35:42.165Z,1022.14
2022-10-07T02:36:42.164Z,1022.12
2022-10-07T02:37:42.511Z,1022.11
2022-10-07T02:38:42.157Z,1022.10
2022-10-07T02:39:42.149Z,1022.07
2022-10-07T02:40:42.147Z,1022.09
2022-10-07T02:41:42.145Z,1022.06
2022-10-07T02:42:42.163Z,1022.03
2022-10-07T02:43:42.134Z,1022.05
2022-10-07T02:44:42.132Z,1022.07
2022-10-07T02:45:42.125Z,1022.04
2022-10-07T02:46:42.153Z,1022.04
2022-10-07T02:47:42.483Z,1022.00
2022-10-07T02:48:42.134Z,1022.02
2022-10-07T02:49:42.108Z,1021.97
2022-10-07T02:50:42.104Z,1021.96
2022-10-07T02:51:42.100Z,1021.97
2022-10-07T02:52:42.102Z,1021.98
2022-10-07T02:53:42.093Z,1021.93
2022-10-07T02:54:42.090Z,1021.92
2022-10-07T02:55:42.086Z,1021.90
2022-10-07T02:56:42.083Z,1021.91
2022-10-07T02:57:42.391Z,1021.89
2022-10-07T02:58:42.096Z,1021.84
2022-10-07T02:59:42.072Z,1021.85
2022-10-07T03:00:42.541Z,1021.83
2022-10-07T03:01:42.202Z,1021.81
2022-10-07T03:02:42.069Z,1021.85
2022-10-07T03:03:42.174Z,1021.81
2022-10-07T03:04:42.050Z,1021.78
2022-10-07T03:05:42.045Z,1021.77
2022-10-07T03:06:42.041Z,1021.75
2022-10-07T03:07:42.496Z,1021.75
2022-10-07T03:08:42.037Z,1021.74
2022-10-07T03:09:42.027Z,1021.71
2022-10-07T03:10:42.023Z,1021.71
2022-10-07T03:11:42.018Z,1021.69
2022-10-07T03:12:42.015Z,1021.66
2022-10-07T03:13:42.012Z,1021.64
2022-10-07T03:14:42.028Z,1021.73
2022-10-07T03:15:42.774Z,1021.71
2022-10-07T03:16:42.007Z,1021.70
2022-10-07T03:17:42.438Z,1021.66
2022-10-07T03:18:41.991Z,1021.68
2022-10-07T03:19:41.990Z,1021.64
2022-10-07T03:20:41.990Z,1021.62
2022-10-07T03:21:41.985Z,1021.58
2022-10-07T03:22:41.974Z,1021.58
2022-10-07T03:23:41.968Z,1021.60
2022-10-07T03:24:41.967Z,1021.59
2022-10-07T03:25:41.963Z,1021.61
2022-10-07T03:26:41.964Z,1021.60
2022-10-07T03:27:42.300Z,1021.61
2022-10-07T03:28:41.989Z,1021.62
2022-10-07T03:29:41.948Z,1021.60
2022-10-07T03:30:41.964Z,1021.63
2022-10-07T03:31:42.016Z,1021.59
2022-10-07T03:32:41.931Z,1021.60
2022-10-07T03:33:41.930Z,1021.57
2022-10-07T03:34:41.926Z,1021.58
2022-10-07T03:35:41.922Z,1021.57
2022-10-07T03:36:41.926Z,1021.60
2022-10-07T03:37:42.206Z,1021.58
2022-10-07T03:38:41.907Z,1021.54
2022-10-07T03:39:41.903Z,1021.55
2022-10-07T03:40:41.900Z,1021.55
2022-10-07T03:41:41.897Z,1021.56
2022-10-07T03:42:41.891Z,1021.52
2022-10-07T03:43:41.887Z,1021.52
2022-10-07T03:44:41.881Z,1021.54
2022-10-07T03:45:41.880Z,1021.51
2022-10-07T03:46:41.936Z,1021.55
2022-10-07T03:47:42.153Z,1021.52
2022-10-07T03:48:41.868Z,1021.54
2022-10-07T03:49:41.863Z,1021.57
2022-10-07T03:50:41.861Z,1021.57
2022-10-07T03:51:41.854Z,1021.53
2022-10-07T03:52:41.852Z,1021.55
2022-10-07T03:53:41.850Z,1021.56
2022-10-07T03:54:41.839Z,1021.53
2022-10-07T03:55:41.837Z,1021.52
2022-10-07T03:56:41.837Z,1021.49
2022-10-07T03:57:42.158Z,1021.48
2022-10-07T03:58:41.827Z,1021.50
2022-10-07T03:59:41.819Z,1021.44
2022-10-07T04:00:41.815Z,1021.48
2022-10-07T04:01:41.897Z,1021.49
2022-10-07T04:02:41.887Z,1021.47
2022-10-07T04:03:41.802Z,1021.49
2022-10-07T04:04:41.800Z,1021.49
2022-10-07T04:05:41.794Z,1021.51
2022-10-07T04:06:41.792Z,1021.48
2022-10-07T04:07:42.144Z,1021.47
2022-10-07T04:08:41.789Z,1021.44
2022-10-07T04:09:41.782Z,1021.44
2022-10-07T04:10:41.774Z,1021.44
2022-10-07T04:11:41.775Z,1021.38
2022-10-07T04:12:41.773Z,1021.42
2022-10-07T04:13:41.766Z,1021.40
2022-10-07T04:14:41.757Z,1021.36
2022-10-07T04:15:41.753Z,1021.38
2022-10-07T04:16:41.843Z,1021.39
2022-10-07T04:17:41.743Z,1021.39
2022-10-07T04:18:41.851Z,1021.34
2022-10-07T04:19:41.736Z,1021.34
2022-10-07T04:20:41.747Z,1021.33
2022-10-07T04:21:41.734Z,1021.34
2022-10-07T04:22:41.735Z,1021.34
2022-10-07T04:23:41.721Z,1021.37
2022-10-07T04:24:41.718Z,1021.37
2022-10-07T04:25:41.713Z,1021.34
2022-10-07T04:26:41.710Z,1021.35
2022-10-07T04:27:51.622Z,1021.35
2022-10-07T04:28:41.729Z,1021.34
2022-10-07T04:29:41.695Z,1021.34
2022-10-07T04:30:41.690Z,1021.32
2022-10-07T04:31:41.725Z,1021.35
2022-10-07T04:32:41.685Z,1021.33
2022-10-07T04:33:41.677Z,1021.33
2022-10-07T04:34:41.729Z,1021.29
2022-10-07T04:35:41.668Z,1021.30
2022-10-07T04:36:41.666Z,1021.27
2022-10-07T04:37:41.751Z,1021.24
2022-10-07T04:38:41.654Z,1021.22
2022-10-07T04:39:59.736Z,1021.24
2022-10-07T04:40:41.654Z,1021.22
2022-10-07T04:41:41.649Z,1021.20
2022-10-07T04:42:41.640Z,1021.22
2022-10-07T04:43:41.637Z,1021.21
2022-10-07T04:44:41.633Z,1021.18
2022-10-07T04:45:41.642Z,1021.18
2022-10-07T04:46:41.688Z,1021.16
2022-10-07T04:47:41.625Z,1021.15
2022-10-07T04:48:41.612Z,1021.12
2022-10-07T04:49:41.611Z,1021.14
2022-10-07T04:50:41.624Z,1021.17
2022-10-07T04:51:41.598Z,1021.15
2022-10-07T04:52:41.600Z,1021.13
2022-10-07T04:53:41.596Z,1021.15
2022-10-07T04:54:41.592Z,1021.13
2022-10-07T04:55:41.585Z,1021.12
2022-10-07T04:56:41.580Z,1021.11
2022-10-07T04:57:41.576Z,1021.08
2022-10-07T04:58:41.574Z,1021.11
2022-10-07T04:59:43.098Z,1021.11
2022-10-07T05:00:41.656Z,1021.14
2022-10-07T05:01:41.641Z,1021.12
2022-10-07T05:02:41.552Z,1021.12
2022-10-07T05:03:41.553Z,1021.12
2022-10-07T05:04:41.552Z,1021.07
2022-10-07T05:05:41.545Z,1021.08
2022-10-07T05:06:41.559Z,1021.08
2022-10-07T05:07:41.533Z,1021.04
2022-10-07T05:08:41.528Z,1021.05
2022-10-07T05:09:41.535Z,1021.05
2022-10-07T05:10:41.522Z,1021.02
2022-10-07T05:11:41.514Z,1021.04
2022-10-07T05:12:41.511Z,1020.99
2022-10-07T05:13:41.522Z,1021.00
2022-10-07T05:14:41.504Z,1021.01
2022-10-07T05:15:41.497Z,1021.00
2022-10-07T05:16:41.577Z,1020.96
2022-10-07T05:17:41.498Z,1020.96
2022-10-07T05:18:41.487Z,1020.97
2022-10-07T05:19:41.483Z,1020.94
2022-10-07T05:20:41.478Z,1020.94
2022-10-07T05:21:41.491Z,1020.96
2022-10-07T05:22:41.486Z,1020.95
2022-10-07T05:23:41.812Z,1020.92
2022-10-07T05:24:41.458Z,1020.94
2022-10-07T05:25:41.452Z,1020.96
2022-10-07T05:26:41.449Z,1020.93
2022-10-07T05:27:41.444Z,1020.95
2022-10-07T05:28:41.553Z,1020.91
2022-10-07T05:29:41.436Z,1020.92
2022-10-07T05:30:41.431Z,1020.91
2022-10-07T05:31:41.444Z,1020.92
2022-10-07T05:32:41.423Z,1020.92
2022-10-07T05:33:41.422Z,1020.91
2022-10-07T05:34:41.415Z,1020.92
2022-10-07T05:35:41.411Z,1020.90
2022-10-07T05:36:41.407Z,1020.91
2022-10-07T05:37:41.406Z,1020.90
2022-10-07T05:38:41.414Z,1020.92
2022-10-07T05:39:41.393Z,1020.92
2022-10-07T05:40:41.388Z,1020.97
2022-10-07T05:41:45.689Z,1020.95
2022-10-07T05:42:41.378Z,1020.98
2022-10-07T05:43:41.377Z,1020.93
2022-10-07T05:44:41.371Z,1020.95
2022-10-07T05:45:41.381Z,1020.94
2022-10-07T05:46:41.361Z,1020.92
2022-10-07T05:47:41.360Z,1020.89
2022-10-07T05:48:41.354Z,1020.89
2022-10-07T05:49:41.352Z,1020.88
2022-10-07T05:50:41.342Z,1020.88
2022-10-07T05:51:41.343Z,1020.91
2022-10-07T05:52:41.338Z,1020.89
2022-10-07T05:53:41.479Z,1020.88
2022-10-07T05:54:41.344Z,1020.87
2022-10-07T05:55:41.327Z,1020.85
2022-10-07T05:56:41.319Z,1020.86
2022-10-07T05:57:41.317Z,1020.82
2022-10-07T05:58:41.320Z,1020.80
2022-10-07T05:59:41.306Z,1020.80
2022-10-07T06:00:41.302Z,1020.78
2022-10-07T06:01:41.351Z,1020.75
2022-10-07T06:02:41.427Z,1020.75
2022-10-07T06:03:41.292Z,1020.78
2022-10-07T06:04:41.284Z,1020.77
2022-10-07T06:05:41.279Z,1020.76
2022-10-07T06:06:41.277Z,1020.77
2022-10-07T06:07:41.271Z,1020.75
2022-10-07T06:08:41.267Z,1020.74
2022-10-07T06:09:41.267Z,1020.75
2022-10-07T06:10:41.275Z,1020.74
2022-10-07T06:11:41.252Z,1020.76
2022-10-07T06:12:41.249Z,1020.79
2022-10-07T06:13:41.247Z,1020.78
2022-10-07T06:14:41.240Z,1020.76
2022-10-07T06:15:41.235Z,1020.78
2022-10-07T06:16:41.331Z,1020.78
2022-10-07T06:17:41.227Z,1020.77
2022-10-07T06:18:41.222Z,1020.79
2022-10-07T06:19:41.220Z,1020.77
2022-10-07T06:20:41.215Z,1020.75
2022-10-07T06:21:41.210Z,1020.76
2022-10-07T06:22:41.204Z,1020.74
2022-10-07T06:23:41.557Z,1020.75
2022-10-07T06:24:41.199Z,1020.76
2022-10-07T06:25:41.198Z,1020.77
2022-10-07T06:26:41.207Z,1020.72
2022-10-07T06:27:41.188Z,1020.75
2022-10-07T06:28:41.303Z,1020.72
2022-10-07T06:29:41.281Z,1020.69
2022-10-07T06:30:41.221Z,1020.72
2022-10-07T06:31:41.167Z,1020.71
2022-10-07T06:32:41.161Z,1020.70
2022-10-07T06:33:41.163Z,1020.73
2022-10-07T06:34:41.151Z,1020.74
2022-10-07T06:35:41.148Z,1020.71
2022-10-07T06:36:41.146Z,1020.72
2022-10-07T06:37:41.141Z,1020.69
2022-10-07T06:38:41.135Z,1020.69
2022-10-07T06:39:41.133Z,1020.73
2022-10-07T06:40:41.127Z,1020.73
2022-10-07T06:41:41.127Z,1020.71
2022-10-07T06:42:41.181Z,1020.70
2022-10-07T06:43:41.115Z,1020.70
2022-10-07T06:44:41.110Z,1020.69
2022-10-07T06:45:41.154Z,1020.72
2022-10-07T06:46:41.106Z,1020.68
2022-10-07T06:47:41.103Z,1020.74
2022-10-07T06:48:41.094Z,1020.70
2022-10-07T06:49:41.092Z,1020.69
2022-10-07T06:50:41.090Z,1020.71
2022-10-07T06:51:41.083Z,1020.77
2022-10-07T06:52:43.482Z,1020.76
2022-10-07T06:53:41.076Z,1020.76
2022-10-07T06:54:41.067Z,1020.77
2022-10-07T06:55:41.065Z,1020.79
2022-10-07T06:56:41.059Z,1020.76
2022-10-07T06:57:56.033Z,1020.81
2022-10-07T06:58:41.086Z,1020.81
2022-10-07T06:59:41.047Z,1020.81
2022-10-07T07:00:41.041Z,1020.81
2022-10-07T07:01:41.117Z,1020.82
2022-10-07T07:02:41.103Z,1020.85
2022-10-07T07:03:41.036Z,1020.82
2022-10-07T07:04:41.081Z,1020.82
2022-10-07T07:05:44.471Z,1020.84
2022-10-07T07:06:41.016Z,1020.85
2022-10-07T07:07:41.016Z,1020.86
2022-10-07T07:08:41.023Z,1020.88
2022-10-07T07:09:41.006Z,1020.86
2022-10-07T07:10:40.999Z,1020.85
2022-10-07T07:11:41.004Z,1020.86
2022-10-07T07:12:41.098Z,1020.83
2022-10-07T07:13:43.861Z,1020.81
2022-10-07T07:14:41.011Z,1020.84
2022-10-07T07:15:40.985Z,1020.80
2022-10-07T07:16:41.037Z,1020.86
2022-10-07T07:17:40.975Z,1020.83
2022-10-07T07:18:40.968Z,1020.84
2022-10-07T07:19:40.966Z,1020.80
2022-10-07T07:20:40.963Z,1020.80
2022-10-07T07:21:40.985Z,1020.78
2022-10-07T07:22:40.952Z,1020.81
2022-10-07T07:23:40.953Z,1020.82
2022-10-07T07:24:41.046Z,1020.84
2022-10-07T07:25:40.941Z,1020.81
2022-10-07T07:26:40.939Z,1020.78
2022-10-07T07:27:40.937Z,1020.82
2022-10-07T07:28:40.938Z,1020.81
2022-10-07T07:29:40.926Z,1020.84
2022-10-07T07:30:41.068Z,1020.83
2022-10-07T07:31:40.920Z,1020.85
2022-10-07T07:32:40.914Z,1020.82
2022-10-07T07:33:40.913Z,1020.83
2022-10-07T07:34:41.019Z,1020.81
2022-10-07T07:35:40.909Z,1020.80
2022-10-07T07:36:40.903Z,1020.83
2022-10-07T07:37:40.933Z,1020.82
2022-10-07T07:38:40.892Z,1020.79
2022-10-07T07:39:40.890Z,1020.77
2022-10-07T07:40:40.886Z,1020.81
2022-10-07T07:41:40.883Z,1020.78
2022-10-07T07:42:40.876Z,1020.78
2022-10-07T07:43:40.873Z,1020.81
2022-10-07T07:44:40.872Z,1020.83
2022-10-07T07:45:40.892Z,1020.85
2022-10-07T07:46:40.888Z,1020.84
2022-10-07T07:47:40.862Z,1020.83
2022-10-07T07:48:40.859Z,1020.90
2022-10-07T07:49:40.855Z,1020.96
2022-10-07T07:50:40.858Z,1020.90
2022-10-07T07:51:40.848Z,1020.91
2022-10-07T07:52:40.847Z,1020.85
2022-10-07T07:53:40.849Z,1020.78
2022-10-07T07:54:40.838Z,1020.79
2022-10-07T07:55:40.837Z,1020.79
2022-10-07T07:56:40.832Z,1020.78
2022-10-07T07:57:40.835Z,1020.78
2022-10-07T07:58:40.828Z,1020.79
2022-10-07T07:59:40.826Z,1020.77
2022-10-07T08:00:40.834Z,1020.80
2022-10-07T08:01:40.904Z,1020.81
2022-10-07T08:02:40.883Z,1020.82
2022-10-07T08:03:40.814Z,1020.76
2022-10-07T08:04:40.808Z,1020.76
2022-10-07T08:05:40.812Z,1020.74
2022-10-07T08:06:40.808Z,1020.73
2022-10-07T08:07:40.808Z,1020.68
2022-10-07T08:08:40.806Z,1020.66
2022-10-07T08:09:40.799Z,1020.67
2022-10-07T08:10:40.793Z,1020.65
2022-10-07T08:11:40.792Z,1020.68
2022-10-07T08:12:40.786Z,1020.65
2022-10-07T08:13:40.789Z,1020.67
2022-10-07T08:14:40.782Z,1020.66
2022-10-07T08:15:40.800Z,1020.62
2022-10-07T08:16:40.777Z,1020.64
2022-10-07T08:17:40.775Z,1020.63
2022-10-07T08:18:40.788Z,1020.64
2022-10-07T08:19:40.773Z,1020.59
2022-10-07T08:20:40.765Z,1020.59
2022-10-07T08:21:40.767Z,1020.55
2022-10-07T08:22:40.757Z,1020.54
2022-10-07T08:23:40.755Z,1020.54
2022-10-07T08:24:40.951Z,1020.57
2022-10-07T08:25:40.750Z,1020.53
2022-10-07T08:26:40.755Z,1020.53
2022-10-07T08:27:40.745Z,1020.52
2022-10-07T08:28:40.741Z,1020.50
2022-10-07T08:29:40.741Z,1020.49
2022-10-07T08:30:40.749Z,1020.50
2022-10-07T08:31:40.734Z,1020.48
2022-10-07T08:32:40.734Z,1020.50
2022-10-07T08:33:40.728Z,1020.52
2022-10-07T08:34:40.749Z,1020.55
2022-10-07T08:35:40.722Z,1020.51
2022-10-07T08:36:40.716Z,1020.51
2022-10-07T08:37:40.720Z,1020.48
2022-10-07T08:38:40.714Z,1020.50
2022-10-07T08:39:40.715Z,1020.46
2022-10-07T08:40:40.712Z,1020.49
2022-10-07T08:41:40.703Z,1020.49
2022-10-07T08:42:40.701Z,1020.47
2022-10-07T08:43:40.698Z,1020.47
2022-10-07T08:44:40.693Z,1020.47
2022-10-07T08:45:40.694Z,1020.46
2022-10-07T08:46:40.690Z,1020.46
2022-10-07T08:47:40.690Z,1020.42
2022-10-07T08:48:40.686Z,1020.39
2022-10-07T08:49:40.683Z,1020.42
2022-10-07T08:50:40.709Z,1020.38
2022-10-07T08:51:40.677Z,1020.36
2022-10-07T08:52:40.672Z,1020.35
2022-10-07T08:53:40.670Z,1020.33
2022-10-07T08:54:40.670Z,1020.30
2022-10-07T08:55:40.665Z,1020.29
2022-10-07T08:56:40.662Z,1020.28
2022-10-07T08:57:40.658Z,1020.30
2022-10-07T08:58:40.655Z,1020.29
2022-10-07T08:59:40.655Z,1020.27
2022-10-07T09:00:40.647Z,1020.25
2022-10-07T09:01:40.752Z,1020.21
2022-10-07T09:02:40.674Z,1020.24
2022-10-07T09:03:40.640Z,1020.19
2022-10-07T09:04:40.636Z,1020.20
2022-10-07T09:05:40.635Z,1020.14
2022-10-07T09:06:40.650Z,1020.16
2022-10-07T09:07:40.626Z,1020.18
2022-10-07T09:08:40.624Z,1020.14
2022-10-07T09:09:40.623Z,1020.13
2022-10-07T09:10:40.623Z,1020.13
2022-10-07T09:11:40.643Z,1020.10
2022-10-07T09:12:40.616Z,1020.13
2022-10-07T09:13:40.622Z,1020.07
2022-10-07T09:14:40.611Z,1020.10
2022-10-07T09:15:40.698Z,1020.09
2022-10-07T09:16:40.608Z,1020.09
2022-10-07T09:17:40.612Z,1020.08
2022-10-07T09:18:40.602Z,1020.06
2022-10-07T09:19:40.606Z,1020.03
2022-10-07T09:20:40.594Z,1020.05
2022-10-07T09:21:40.590Z,1020.00
2022-10-07T09:22:40.603Z,1019.99
2022-10-07T09:23:40.585Z,1019.97
2022-10-07T09:24:40.632Z,1019.93
2022-10-07T09:25:40.593Z,1019.90
2022-10-07T09:26:40.583Z,1019.92
2022-10-07T09:27:40.576Z,1019.92
2022-10-07T09:28:40.626Z,1019.91
2022-10-07T09:29:40.576Z,1019.88
2022-10-07T09:30:40.565Z,1019.89
2022-10-07T09:31:40.564Z,1019.86
2022-10-07T09:32:40.565Z,1019.86
2022-10-07T09:33:40.563Z,1019.85
2022-10-07T09:34:40.557Z,1019.86
2022-10-07T09:35:40.552Z,1019.82
2022-10-07T09:36:40.553Z,1019.81
2022-10-07T09:37:40.566Z,1019.77
2022-10-07T09:38:40.581Z,1019.75
2022-10-07T09:39:40.542Z,1019.75
2022-10-07T09:40:40.540Z,1019.66
2022-10-07T09:41:40.538Z,1019.71
2022-10-07T09:42:40.533Z,1019.70
2022-10-07T09:43:40.534Z,1019.70
2022-10-07T09:44:40.527Z,1019.69
2022-10-07T09:45:40.531Z,1019.68
2022-10-07T09:46:40.665Z,1019.71
2022-10-07T09:47:40.538Z,1019.68
2022-10-07T09:48:40.517Z,1019.71
2022-10-07T09:49:40.515Z,1019.71
2022-10-07T09:50:40.513Z,1019.70
2022-10-07T09:51:40.512Z,1019.66
2022-10-07T09:52:40.512Z,1019.64
2022-10-07T09:53:40.507Z,1019.67
2022-10-07T09:54:40.522Z,1019.63
2022-10-07T09:55:40.514Z,1019.62
2022-10-07T09:56:40.498Z,1019.64
2022-10-07T09:57:40.496Z,1019.64
2022-10-07T09:58:40.494Z,1019.64
2022-10-07T09:59:40.513Z,1019.65
2022-10-07T10:00:40.490Z,1019.70
2022-10-07T10:01:40.522Z,1019.66
2022-10-07T10:02:40.606Z,1019.68
2022-10-07T10:03:40.533Z,1019.65
2022-10-07T10:04:40.489Z,1019.67
2022-10-07T10:05:40.479Z,1019.63
2022-10-07T10:06:40.472Z,1019.65
2022-10-07T10:07:40.474Z,1019.63
2022-10-07T10:08:40.471Z,1019.64
2022-10-07T10:09:40.467Z,1019.59
2022-10-07T10:10:40.484Z,1019.62
2022-10-07T10:11:40.461Z,1019.53
2022-10-07T10:12:42.729Z,1019.56
2022-10-07T10:13:40.458Z,1019.54
2022-10-07T10:14:40.485Z,1019.53
2022-10-07T10:15:40.522Z,1019.46
2022-10-07T10:16:40.451Z,1019.48
2022-10-07T10:17:40.445Z,1019.43
2022-10-07T10:18:40.450Z,1019.45
2022-10-07T10:19:40.440Z,1019.46
2022-10-07T10:20:40.440Z,1019.44
2022-10-07T10:21:40.435Z,1019.38
2022-10-07T10:22:40.433Z,1019.39
2022-10-07T10:23:40.429Z,1019.38
2022-10-07T10:24:40.880Z,1019.41
2022-10-07T10:25:40.424Z,1019.37
2022-10-07T10:26:40.442Z,1019.30
2022-10-07T10:27:40.419Z,1019.30
2022-10-07T10:28:40.515Z,1019.24
2022-10-07T10:29:40.418Z,1019.23
2022-10-07T10:30:40.415Z,1019.21
2022-10-07T10:31:40.444Z,1019.21
2022-10-07T10:32:40.410Z,1019.25
2022-10-07T10:33:40.406Z,1019.19
2022-10-07T10:34:40.406Z,1019.20
2022-10-07T10:35:40.406Z,1019.17
2022-10-07T10:36:40.402Z,1019.17
2022-10-07T10:37:40.398Z,1019.15
2022-10-07T10:38:40.398Z,1019.13
2022-10-07T10:39:40.390Z,1019.09
2022-10-07T10:40:40.393Z,1019.09
2022-10-07T10:41:40.386Z,1019.10
2022-10-07T10:42:40.409Z,1019.07
2022-10-07T10:43:40.384Z,1019.08
2022-10-07T10:44:40.386Z,1019.09
2022-10-07T10:45:40.428Z,1019.04
2022-10-07T10:46:40.569Z,1019.01
2022-10-07T10:47:40.377Z,1019.05
2022-10-07T10:48:40.373Z,1019.01
2022-10-07T10:49:40.371Z,1018.99
2022-10-07T10:50:40.369Z,1018.95
2022-10-07T10:51:40.365Z,1018.93
2022-10-07T10:52:40.362Z,1018.92
2022-10-07T10:53:40.360Z,1018.91
2022-10-07T10:54:40.362Z,1018.88
2022-10-07T10:55:40.354Z,1018.82
2022-10-07T10:56:40.357Z,1018.85
2022-10-07T10:57:40.352Z,1018.84
2022-10-07T10:58:40.401Z,1018.83
2022-10-07T10:59:40.348Z,1018.84
2022-10-07T11:00:40.346Z,1018.80
2022-10-07T11:01:40.387Z,1018.80
2022-10-07T11:02:40.397Z,1018.77
2022-10-07T11:03:40.336Z,1018.74
2022-10-07T11:04:40.336Z,1018.68
2022-10-07T11:05:40.337Z,1018.69
2022-10-07T11:06:40.335Z,1018.66
2022-10-07T11:07:40.328Z,1018.62
2022-10-07T11:08:40.331Z,1018.62
2022-10-07T11:09:40.324Z,1018.62
2022-10-07T11:10:40.329Z,1018.60
2022-10-07T11:11:40.319Z,1018.61
2022-10-07T11:12:40.321Z,1018.54
2022-10-07T11:13:40.814Z,1018.50
2022-10-07T11:14:40.334Z,1018.52
2022-10-07T11:15:40.314Z,1018.53
2022-10-07T11:16:40.314Z,1018.49
2022-10-07T11:17:40.314Z,1018.48
2022-10-07T11:18:40.310Z,1018.42
2022-10-07T11:19:40.310Z,1018.39
2022-10-07T11:20:44.504Z,1018.40
2022-10-07T11:21:40.299Z,1018.40
2022-10-07T11:22:40.315Z,1018.35
2022-10-07T11:23:40.299Z,1018.36
2022-10-07T11:24:40.553Z,1018.30
2022-10-07T11:25:40.291Z,1018.35
2022-10-07T11:26:40.290Z,1018.29
2022-10-07T11:27:40.287Z,1018.34
2022-10-07T11:28:40.340Z,1018.30
2022-10-07T11:29:40.282Z,1018.30
2022-10-07T11:30:40.296Z,1018.27
2022-10-07T11:31:40.388Z,1018.26
2022-10-07T11:32:40.286Z,1018.26
2022-10-07T11:33:40.275Z,1018.22
2022-10-07T11:34:40.275Z,1018.19
2022-10-07T11:35:40.268Z,1018.18
2022-10-07T11:36:40.270Z,1018.17
2022-10-07T11:37:40.268Z,1018.16
2022-10-07T11:38:40.277Z,1018.10
2022-10-07T11:39:40.264Z,1018.14
2022-10-07T11:40:40.271Z,1018.08
2022-10-07T11:41:40.261Z,1018.05
2022-10-07T11:42:40.259Z,1018.02
2022-10-07T11:43:40.253Z,1018.00
2022-10-07T11:44:40.255Z,1017.97
2022-10-07T11:45:40.254Z,1017.95
2022-10-07T11:46:40.329Z,1017.98
2022-10-07T11:47:40.252Z,1017.92
2022-10-07T11:48:40.244Z,1017.88
2022-10-07T11:49:40.253Z,1017.87
2022-10-07T11:50:40.243Z,1017.88
2022-10-07T11:51:40.239Z,1017.79
2022-10-07T11:52:40.237Z,1017.78
2022-10-07T11:53:40.231Z,1017.82
2022-10-07T11:54:40.234Z,1017.77
2022-10-07T11:55:40.227Z,1017.77
2022-10-07T11:56:40.227Z,1017.75
2022-10-07T11:57:40.229Z,1017.64
2022-10-07T11:58:40.225Z,1017.63
2022-10-07T11:59:40.222Z,1017.63
2022-10-07T12:00:40.244Z,1017.61
2022-10-07T12:01:40.269Z,1017.57
2022-10-07T12:02:40.285Z,1017.52
2022-10-07T12:03:40.215Z,1017.53
2022-10-07T12:04:40.217Z,1017.54
2022-10-07T12:05:40.209Z,1017.47